Loma, Montana
Current Conditions -  °F | °C
As of 12:56 AM on Sunday 26 Oct 2014 (Local Time) from KGFA Reporting Station
Broken Clouds Broken Clouds  
Wind Chill: 54°   Ceiling: 14000
Heat Index: 54°   Visibility: 10mi
Dew Point: 39°   Wind: 9mph
Humidity: 57%   Direction: 230°SW
Pressure: 29.61"   Gusts: NA
Location:  47.93°N, 110.49°W
Report Text: KGFA 260656Z AUTO 23008KT 10SM BKN140 12/04 A2961 RMK AO2 SLP031 T01200038
Loading
Personal Weather Stations






























Interactive Weather Map
Tropical Storm Tracking
New forecast layout! Learn more

10-Day Weather Forecast

Advertisements
Track Severe Weather on mobile